Time;durP1;ratioP1;P1;durP2;ratioP2;P2;SDS_P1;SDS_P2;PMS_P1;PMS_P2;Temp;Humidity;BMP_temperature;BMP_pressure;BME280_temperature;BME280_humidity;BME280_pressure;Samples;Min_cycle;Max_cycle;Signal;HPM_P1;HPM_P2
2023/10/17 00:01:35;;;;;;;;;3.33;3.00;;;;;;;;5081148;28;45357;-78
2023/10/17 00:06:45;;;;;;;;;3.67;3.33;;;;;;;;5063378;28;45324;-78
2023/10/17 00:09:10;;;;;;;;;2.67;2.67;;;;;;;;5060548;28;45368;-78
2023/10/17 00:11:58;;;;;;;;;6.00;5.00;;;;;;;;5060807;28;45287;-78
2023/10/17 00:14:44;;;;;;;;;4.67;4.67;;;;;;;;5063203;28;45210;-78
2023/10/17 00:17:13;;;;;;;;;3.00;3.00;;;;;;;;5060392;28;47247;-78
2023/10/17 00:19:41;;;;;;;;;5.67;3.00;;;;;;;;5060879;28;45331;-78
2023/10/17 00:22:06;;;;;;;;;4.00;4.00;;;;;;;;5063150;28;45364;-79
2023/10/17 00:24:31;;;;;;;;;3.00;3.00;;;;;;;;5061814;28;45305;-78
2023/10/17 00:26:57;;;;;;;;;3.67;3.67;;;;;;;;5060605;28;46337;-78
2023/10/17 00:29:22;;;;;;;;;3.33;3.33;;;;;;;;5076930;27;45371;-78
2023/10/17 00:31:47;;;;;;;;;4.67;4.67;;;;;;;;5100908;27;45341;-78
2023/10/17 00:34:13;;;;;;;;;3.00;2.67;;;;;;;;5102114;27;45381;-79
2023/10/17 00:36:47;;;;;;;;;3.67;3.67;;;;;;;;5100653;27;46408;-79
2023/10/17 00:39:16;;;;;;;;;4.00;4.00;;;;;;;;5101617;27;46188;-78
2023/10/17 00:41:50;;;;;;;;;2.33;2.33;;;;;;;;5103846;27;45296;-78
2023/10/17 00:44:24;;;;;;;;;4.33;4.33;;;;;;;;5102868;27;45235;-79
2023/10/17 00:46:49;;;;;;;;;3.33;3.33;;;;;;;;5103720;27;45340;-78
2023/10/17 00:49:15;;;;;;;;;5.00;5.00;;;;;;;;5104109;27;45241;-78
2023/10/17 00:51:41;;;;;;;;;5.00;3.67;;;;;;;;5102194;27;45239;-78
2023/10/17 00:54:06;;;;;;;;;3.67;3.67;;;;;;;;5101449;27;46990;-79
2023/10/17 00:56:31;;;;;;;;;4.00;3.00;;;;;;;;5102199;27;45495;-77
2023/10/17 00:58:57;;;;;;;;;5.00;4.00;;;;;;;;5101203;27;45193;-78
2023/10/17 01:01:26;;;;;;;;;3.33;3.33;;;;;;;;5103377;27;45418;-78
2023/10/17 01:03:52;;;;;;;;;3.33;3.33;;;;;;;;5103512;27;45275;-79
2023/10/17 01:08:56;;;;;;;;;3.33;3.00;;;;;;;;5101403;27;45348;-78
2023/10/17 01:11:22;;;;;;;;;4.00;3.67;;;;;;;;5100393;27;45395;-78
2023/10/17 01:13:52;;;;;;;;;4.00;4.00;;;;;;;;5100217;27;45511;-78
2023/10/17 01:16:18;;;;;;;;;3.00;2.33;;;;;;;;5100882;27;46074;-78
2023/10/17 01:18:47;;;;;;;;;3.67;3.67;;;;;;;;5100314;27;45309;-78
2023/10/17 01:21:13;;;;;;;;;6.00;4.00;;;;;;;;5101704;27;45272;-78
2023/10/17 01:23:38;;;;;;;;;3.67;3.67;;;;;;;;5100270;27;46784;-78
2023/10/17 01:26:08;;;;;;;;;4.00;4.00;;;;;;;;5098705;27;48313;-78
2023/10/17 01:28:33;;;;;;;;;4.33;3.00;;;;;;;;5097301;27;45281;-78
2023/10/17 01:31:01;;;;;;;;;4.00;3.00;;;;;;;;5078703;28;45386;-79
2023/10/17 01:33:29;;;;;;;;;5.33;5.33;;;;;;;;5079126;28;47251;-78
2023/10/17 01:35:56;;;;;;;;;3.67;2.67;;;;;;;;5081812;28;45385;-78
2023/10/17 01:38:25;;;;;;;;;4.33;4.33;;;;;;;;5080547;28;45299;-78
2023/10/17 01:40:50;;;;;;;;;3.00;3.00;;;;;;;;5080062;28;45272;-78
2023/10/17 01:43:16;;;;;;;;;4.67;4.00;;;;;;;;5084054;28;45230;-78
2023/10/17 01:45:42;;;;;;;;;5.00;4.33;;;;;;;;5084359;28;45271;-78
2023/10/17 01:48:11;;;;;;;;;3.00;3.00;;;;;;;;5085120;28;45321;-79
2023/10/17 01:50:36;;;;;;;;;5.00;3.67;;;;;;;;5082143;28;45456;-78
2023/10/17 01:53:09;;;;;;;;;4.00;4.00;;;;;;;;5084028;28;45450;-79
2023/10/17 01:55:37;;;;;;;;;4.00;4.00;;;;;;;;5084853;28;46235;-78
2023/10/17 01:58:07;;;;;;;;;4.00;2.33;;;;;;;;5082676;28;45383;-78
2023/10/17 02:02:58;;;;;;;;;3.00;3.00;;;;;;;;5085080;28;45335;-78
2023/10/17 02:05:23;;;;;;;;;6.00;3.33;;;;;;;;5081618;28;47393;-78
2023/10/17 02:07:48;;;;;;;;;4.00;3.33;;;;;;;;5085945;28;45298;-78
2023/10/17 02:10:18;;;;;;;;;3.33;3.33;;;;;;;;5084041;28;45308;-79
2023/10/17 02:12:44;;;;;;;;;3.33;3.33;;;;;;;;5085247;28;45209;-79
2023/10/17 02:15:11;;;;;;;;;4.00;3.00;;;;;;;;5081514;28;47532;-78
2023/10/17 02:17:36;;;;;;;;;4.00;3.00;;;;;;;;5084475;28;45234;-78
2023/10/17 02:20:09;;;;;;;;;4.00;4.00;;;;;;;;5084061;28;45684;-78
2023/10/17 02:22:40;;;;;;;;;4.00;4.00;;;;;;;;5085207;28;45268;-78
2023/10/17 02:25:06;;;;;;;;;3.67;3.67;;;;;;;;5085494;28;46192;-78
2023/10/17 02:27:37;;;;;;;;;5.00;4.33;;;;;;;;5086048;28;45326;-78
2023/10/17 02:30:04;;;;;;;;;6.00;4.67;;;;;;;;5101079;27;45331;-78
2023/10/17 02:32:29;;;;;;;;;4.00;2.67;;;;;;;;5104549;27;45332;-78
2023/10/17 02:34:54;;;;;;;;;4.00;3.00;;;;;;;;5105865;27;46059;-79
2023/10/17 02:37:29;;;;;;;;;5.00;4.00;;;;;;;;5104826;27;45408;-78
2023/10/17 02:39:54;;;;;;;;;5.33;4.00;;;;;;;;5105379;27;45627;-78
2023/10/17 02:42:19;;;;;;;;;3.67;3.67;;;;;;;;5102039;27;45323;-79
2023/10/17 02:44:45;;;;;;;;;4.00;4.00;;;;;;;;5103828;27;46301;-78
2023/10/17 02:47:11;;;;;;;;;4.33;4.33;;;;;;;;5103241;27;45737;-78
2023/10/17 02:49:39;;;;;;;;;4.00;4.00;;;;;;;;5106078;27;45276;-79
2023/10/17 02:52:05;;;;;;;;;7.00;5.67;;;;;;;;5104241;27;45389;-78
2023/10/17 02:54:34;;;;;;;;;6.33;5.33;;;;;;;;5104072;27;46069;-78
2023/10/17 02:56:59;;;;;;;;;4.33;4.33;;;;;;;;5102665;27;45612;-78
2023/10/17 02:59:24;;;;;;;;;6.00;5.00;;;;;;;;5102494;27;45420;-78
2023/10/17 03:01:53;;;;;;;;;4.33;4.33;;;;;;;;5102586;27;45693;-79
2023/10/17 03:04:23;;;;;;;;;7.00;5.67;;;;;;;;5085773;27;48500;-78
2023/10/17 03:06:48;;;;;;;;;4.00;4.00;;;;;;;;5102539;27;45247;-79
2023/10/17 03:17:04;;;;;;;;;4.00;3.00;;;;;;;;5104164;27;45286;-78
2023/10/17 03:19:29;;;;;;;;;5.00;4.00;;;;;;;;5104170;27;45604;-78
2023/10/17 03:21:55;;;;;;;;;4.00;4.00;;;;;;;;5104884;27;45518;-79
2023/10/17 03:24:28;;;;;;;;;7.00;5.00;;;;;;;;5101888;27;48246;-79
2023/10/17 03:26:55;;;;;;;;;4.33;4.33;;;;;;;;5104292;27;45313;-78
2023/10/17 03:29:23;;;;;;;;;4.00;4.00;;;;;;;;5094795;27;45271;-79
2023/10/17 03:31:58;;;;;;;;;5.33;5.00;;;;;;;;5081845;28;45453;-78
2023/10/17 03:34:34;;;;;;;;;5.33;4.00;;;;;;;;5083921;28;45389;-78
2023/10/17 03:37:26;;;;;;;;;4.00;4.00;;;;;;;;5082701;28;45330;-78
2023/10/17 03:39:51;;;;;;;;;4.00;4.00;;;;;;;;5062776;28;45373;-78
2023/10/17 03:42:29;;;;;;;;;4.33;4.33;;;;;;;;5062823;28;45358;-78
2023/10/17 03:44:54;;;;;;;;;5.33;4.33;;;;;;;;5066230;28;46178;-78
2023/10/17 03:47:22;;;;;;;;;5.67;4.67;;;;;;;;5079199;28;45378;-79
2023/10/17 03:49:48;;;;;;;;;4.67;4.00;;;;;;;;5068355;28;45366;-78
2023/10/17 03:52:16;;;;;;;;;6.00;5.33;;;;;;;;5065653;28;46401;-78
2023/10/17 03:54:44;;;;;;;;;5.00;5.00;;;;;;;;5066264;28;46269;-78
2023/10/17 03:57:15;;;;;;;;;4.33;4.33;;;;;;;;5063515;28;45647;-79
2023/10/17 03:59:41;;;;;;;;;4.00;4.00;;;;;;;;5085231;28;45297;-78
2023/10/17 04:02:18;;;;;;;;;4.33;4.33;;;;;;;;5085739;28;46173;-78
2023/10/17 04:04:53;;;;;;;;;4.00;4.00;;;;;;;;5085645;28;48072;-78
2023/10/17 04:07:21;;;;;;;;;4.33;4.33;;;;;;;;5090335;27;45260;-78
2023/10/17 04:09:54;;;;;;;;;3.00;3.00;;;;;;;;5085871;28;45499;-78
2023/10/17 04:15:18;;;;;;;;;5.67;5.00;;;;;;;;5059814;28;45493;-79
2023/10/17 04:17:46;;;;;;;;;7.00;4.33;;;;;;;;5083896;28;45325;-78
2023/10/17 04:20:11;;;;;;;;;2.00;2.00;;;;;;;;5085648;28;45224;-78
2023/10/17 04:22:38;;;;;;;;;4.67;4.67;;;;;;;;5085606;28;45387;-78
2023/10/17 04:25:17;;;;;;;;;4.67;3.67;;;;;;;;5082025;28;46327;-78
2023/10/17 04:27:45;;;;;;;;;4.00;4.00;;;;;;;;5085868;28;45399;-78
2023/10/17 04:30:20;;;;;;;;;4.67;4.67;;;;;;;;5099815;27;45326;-78
2023/10/17 04:32:46;;;;;;;;;10.67;7.33;;;;;;;;5106729;27;45262;-78
2023/10/17 04:35:11;;;;;;;;;4.00;4.00;;;;;;;;5102399;27;46052;-78
2023/10/17 04:37:37;;;;;;;;;4.33;4.00;;;;;;;;5110012;27;45277;-78
2023/10/17 04:41:13;;;;;;;;;6.33;6.33;;;;;;;;5109860;27;45362;-78
2023/10/17 04:45:45;;;;;;;;;4.67;4.33;;;;;;;;5087359;28;45387;-78
2023/10/17 04:48:17;;;;;;;;;5.00;5.00;;;;;;;;5086985;28;45310;-77
2023/10/17 04:50:45;;;;;;;;;6.00;6.00;;;;;;;;5088100;28;45426;-77
2023/10/17 04:53:19;;;;;;;;;5.00;4.33;;;;;;;;5083682;28;46096;-78
2023/10/17 04:56:03;;;;;;;;;5.67;5.67;;;;;;;;5082511;28;47185;-78
2023/10/17 04:58:30;;;;;;;;;9.33;6.33;;;;;;;;5084414;28;45353;-76
2023/10/17 05:03:45;;;;;;;;;6.33;6.00;;;;;;;;5080197;28;45653;-78
2023/10/17 06:17:01;;;;;;;;;3.00;3.00;;;;;;;;5082198;28;45436;-76
2023/10/17 06:19:27;;;;;;;;;8.33;5.67;;;;;;;;5081348;28;45278;-78
2023/10/17 06:34:47;;;;;;;;;7.67;6.67;;;;;;;;5081982;28;45317;-78
2023/10/17 06:37:19;;;;;;;;;7.67;7.67;;;;;;;;5081990;28;45303;-76
2023/10/17 06:39:48;;;;;;;;;11.00;7.33;;;;;;;;5080059;28;47147;-77
2023/10/17 06:42:29;;;;;;;;;10.00;8.33;;;;;;;;5081762;28;46242;-77
2023/10/17 06:45:01;;;;;;;;;7.00;7.00;;;;;;;;5087047;28;45302;-79
2023/10/17 06:47:41;;;;;;;;;10.00;10.00;;;;;;;;5088996;28;45462;-80
2023/10/17 06:52:54;;;;;;;;;10.67;9.00;;;;;;;;5083254;28;45273;-77
2023/10/17 06:55:28;;;;;;;;;9.33;8.33;;;;;;;;5071976;28;45477;-78
2023/10/17 06:57:56;;;;;;;;;4.33;3.67;;;;;;;;5069682;28;45520;-79
2023/10/17 07:00:24;;;;;;;;;9.00;9.00;;;;;;;;5069258;28;46594;-79
2023/10/17 07:02:50;;;;;;;;;8.33;7.00;;;;;;;;5071274;28;46067;-78
2023/10/17 07:05:21;;;;;;;;;9.67;6.33;;;;;;;;5068708;28;45310;-78
2023/10/17 07:07:52;;;;;;;;;9.00;9.00;;;;;;;;5059805;28;45288;-77
2023/10/17 07:13:08;;;;;;;;;9.33;9.00;;;;;;;;5060784;28;46061;-75
2023/10/17 07:15:33;;;;;;;;;8.00;8.00;;;;;;;;5061128;28;45189;-75
2023/10/17 07:23:32;;;;;;;;;11.00;9.00;;;;;;;;5080599;28;45690;-77
2023/10/17 07:25:57;;;;;;;;;12.33;11.00;;;;;;;;5080746;28;45349;-78
2023/10/17 07:28:22;;;;;;;;;7.33;6.67;;;;;;;;5080274;27;45425;-79
2023/10/17 07:30:57;;;;;;;;;13.67;9.67;;;;;;;;5100109;27;46228;-78
2023/10/17 07:33:23;;;;;;;;;8.33;7.00;;;;;;;;5099936;27;47421;-77
2023/10/17 07:35:58;;;;;;;;;10.67;10.33;;;;;;;;5099790;27;45383;-76
2023/10/17 07:38:29;;;;;;;;;9.67;9.67;;;;;;;;5098979;27;45456;-77
2023/10/17 07:41:12;;;;;;;;;11.00;9.67;;;;;;;;5101143;27;45350;-78
2023/10/17 07:43:42;;;;;;;;;11.33;10.00;;;;;;;;5069034;28;45329;-77
2023/10/17 07:46:13;;;;;;;;;8.33;8.33;;;;;;;;5079827;27;45483;-76
2023/10/17 07:48:39;;;;;;;;;12.00;8.33;;;;;;;;5080257;28;45258;-77
2023/10/17 07:51:05;;;;;;;;;8.67;8.00;;;;;;;;5076288;27;45528;-77
2023/10/17 07:53:32;;;;;;;;;12.67;11.00;;;;;;;;5080089;28;46060;-76
2023/10/17 07:56:12;;;;;;;;;8.67;8.67;;;;;;;;5080037;27;45436;-76
2023/10/17 07:58:44;;;;;;;;;8.67;8.67;;;;;;;;5080510;28;45453;-76
2023/10/17 08:01:14;;;;;;;;;10.00;9.33;;;;;;;;5080090;28;45479;-77
2023/10/17 08:03:40;;;;;;;;;10.33;8.33;;;;;;;;5079932;28;46005;-77
2023/10/17 08:06:07;;;;;;;;;11.33;8.33;;;;;;;;5080277;28;45280;-78
2023/10/17 08:08:33;;;;;;;;;10.00;9.33;;;;;;;;5079246;28;45352;-77
2023/10/17 08:10:59;;;;;;;;;11.67;11.67;;;;;;;;5078741;28;45896;-76
2023/10/17 08:13:24;;;;;;;;;49.50;36.00;;;;;;;;5080303;28;45343;-77
2023/10/17 08:15:53;;;;;;;;;15.00;13.33;;;;;;;;5079025;28;45307;-77
2023/10/17 08:18:22;;;;;;;;;18.67;17.00;;;;;;;;5078989;28;45276;-77
2023/10/17 08:21:16;;;;;;;;;16.67;15.00;;;;;;;;5079780;28;45455;-76
2023/10/17 08:23:40;;;;;;;;;17.33;16.00;;;;;;;;5079742;27;45165;-77
2023/10/17 08:26:10;;;;;;;;;8.33;8.33;;;;;;;;5078862;28;45243;-78
2023/10/17 08:33:47;;;;;;;;;10.00;10.00;;;;;;;;5101061;27;46131;-78
2023/10/17 08:36:13;;;;;;;;;10.33;10.33;;;;;;;;5101614;27;45397;-78
2023/10/17 08:38:40;;;;;;;;;14.00;12.00;;;;;;;;5101280;27;45214;-77
2023/10/17 08:41:08;;;;;;;;;12.67;9.00;;;;;;;;5099255;27;46680;-77
2023/10/17 08:43:35;;;;;;;;;9.67;9.67;;;;;;;;5100433;27;45395;-76
2023/10/17 08:46:06;;;;;;;;;13.00;10.00;;;;;;;;5100048;27;45492;-78
2023/10/17 08:48:31;;;;;;;;;9.67;9.67;;;;;;;;5100592;27;45199;-78
2023/10/17 08:50:59;;;;;;;;;6.00;6.00;;;;;;;;5100068;27;45286;-78
2023/10/17 08:53:24;;;;;;;;;7.33;7.00;;;;;;;;5101331;27;48274;-78
2023/10/17 08:55:50;;;;;;;;;8.33;7.00;;;;;;;;5102723;27;45326;-79
2023/10/17 08:58:17;;;;;;;;;7.00;7.00;;;;;;;;5100305;27;45463;-78
2023/10/17 09:03:20;;;;;;;;;10.00;10.00;;;;;;;;5099758;27;45949;-79
2023/10/17 09:06:28;;;;;;;;;8.00;7.33;;;;;;;;5100033;27;45201;-78
2023/10/17 09:08:55;;;;;;;;;10.00;8.67;;;;;;;;5097217;27;45382;-80
2023/10/17 09:11:29;;;;;;;;;8.00;6.33;;;;;;;;5079906;28;45295;-78
2023/10/17 09:16:50;;;;;;;;;8.33;8.33;;;;;;;;5079384;28;45486;-78
2023/10/17 09:19:16;;;;;;;;;6.67;6.67;;;;;;;;5084062;28;45544;-76
2023/10/17 09:21:46;;;;;;;;;7.33;7.33;;;;;;;;5081749;28;45383;-78
2023/10/17 09:24:32;;;;;;;;;9.67;7.33;;;;;;;;5088971;28;47474;-78
2023/10/17 09:27:02;;;;;;;;;7.67;7.67;;;;;;;;5089677;28;45204;-79
2023/10/17 09:29:40;;;;;;;;;8.33;7.00;;;;;;;;5098194;27;45185;-79
2023/10/17 09:32:05;;;;;;;;;7.00;7.00;;;;;;;;5099691;27;45340;-78
2023/10/17 09:34:32;;;;;;;;;6.00;6.00;;;;;;;;5101230;27;47161;-77
2023/10/17 09:37:03;;;;;;;;;7.00;7.00;;;;;;;;5105141;27;45210;-78
2023/10/17 09:39:29;;;;;;;;;11.00;10.67;;;;;;;;5098503;27;45227;-78
2023/10/17 09:41:55;;;;;;;;;14.00;14.00;;;;;;;;5099612;27;45598;-76
2023/10/17 09:44:20;;;;;;;;;6.00;6.00;;;;;;;;5098337;27;47783;-79
2023/10/17 09:46:50;;;;;;;;;8.00;8.00;;;;;;;;5099180;27;45322;-79
2023/10/17 09:49:17;;;;;;;;;8.00;8.00;;;;;;;;5098453;27;45349;-78
2023/10/17 09:51:42;;;;;;;;;8.00;8.00;;;;;;;;5097828;27;45983;-77
2023/10/17 09:54:10;;;;;;;;;9.00;7.67;;;;;;;;5097952;27;47583;-79
2023/10/17 09:56:42;;;;;;;;;9.67;8.67;;;;;;;;5101252;27;45263;-79
2023/10/17 09:59:16;;;;;;;;;5.67;4.00;;;;;;;;5100298;27;45341;-80
2023/10/17 10:01:45;;;;;;;;;8.00;8.00;;;;;;;;5104554;27;46646;-79
2023/10/17 10:04:11;;;;;;;;;18.00;16.00;;;;;;;;5078219;28;46352;-77
2023/10/17 10:06:37;;;;;;;;;32.00;26.33;;;;;;;;5069565;28;45565;-80
2023/10/17 10:09:14;;;;;;;;;27.33;25.00;;;;;;;;5082419;27;45480;-79
2023/10/17 10:11:48;;;;;;;;;7.33;7.33;;;;;;;;5081398;27;45420;-81
2023/10/17 10:14:14;;;;;;;;;7.00;7.00;;;;;;;;5074300;27;45423;-78
2023/10/17 10:16:49;;;;;;;;;7.67;7.00;;;;;;;;5082670;28;45308;-80
2023/10/17 10:19:15;;;;;;;;;7.67;7.67;;;;;;;;5082240;28;45499;-80
2023/10/17 10:21:54;;;;;;;;;9.00;8.00;;;;;;;;5082272;28;45379;-79
2023/10/17 10:24:24;;;;;;;;;9.33;9.33;;;;;;;;5082908;28;45418;-79
2023/10/17 10:27:09;;;;;;;;;10.33;9.33;;;;;;;;5080455;28;45917;-80
2023/10/17 10:29:34;;;;;;;;;9.00;9.00;;;;;;;;5093316;27;45425;-79
2023/10/17 10:32:05;;;;;;;;;6.67;6.67;;;;;;;;5101281;27;45957;-80
2023/10/17 10:34:31;;;;;;;;;26.67;22.33;;;;;;;;5104620;27;45663;-80
2023/10/17 10:37:00;;;;;;;;;36.67;32.00;;;;;;;;5110190;27;45195;-79
2023/10/17 10:39:25;;;;;;;;;30.67;28.33;;;;;;;;5107602;27;45361;-79
2023/10/17 10:42:01;;;;;;;;;30.33;26.33;;;;;;;;5110025;27;46273;-79
2023/10/17 10:44:26;;;;;;;;;14.67;14.00;;;;;;;;5087754;27;47368;-82
2023/10/17 10:46:52;;;;;;;;;23.00;21.00;;;;;;;;5087589;28;45444;-79
2023/10/17 10:49:24;;;;;;;;;7.33;6.33;;;;;;;;5083989;27;45497;-78
2023/10/17 10:51:50;;;;;;;;;10.67;10.00;;;;;;;;5087466;27;45402;-78
2023/10/17 10:54:15;;;;;;;;;34.00;29.67;;;;;;;;5096065;27;48440;-79
2023/10/17 10:56:49;;;;;;;;;31.33;27.67;;;;;;;;5089065;28;45382;-76
2023/10/17 10:59:19;;;;;;;;;15.67;15.67;;;;;;;;5081422;28;45375;-77
2023/10/17 11:01:47;;;;;;;;;7.00;7.00;;;;;;;;5084821;27;45514;-79
2023/10/17 11:04:12;;;;;;;;;7.33;7.33;;;;;;;;5082225;27;46531;-78
2023/10/17 11:06:38;;;;;;;;;5.67;5.67;;;;;;;;5087070;28;45240;-77
2023/10/17 11:09:07;;;;;;;;;8.67;8.00;;;;;;;;5090074;28;44705;-75
2023/10/17 11:11:42;;;;;;;;;8.00;5.67;;;;;;;;5082366;27;47507;-76
2023/10/17 11:14:13;;;;;;;;;8.33;7.00;;;;;;;;5086365;28;45360;-76
2023/10/17 11:16:39;;;;;;;;;24.33;23.33;;;;;;;;5087561;27;45486;-77
2023/10/17 11:19:05;;;;;;;;;9.00;6.33;;;;;;;;5081076;28;45379;-75
2023/10/17 11:21:31;;;;;;;;;8.33;7.67;;;;;;;;5084556;27;45425;-75
2023/10/17 11:24:00;;;;;;;;;8.00;7.33;;;;;;;;5084235;28;45996;-75
2023/10/17 11:26:28;;;;;;;;;7.33;7.00;;;;;;;;5083268;27;44618;-74
2023/10/17 11:28:53;;;;;;;;;8.00;8.00;;;;;;;;5093835;27;45584;-75
2023/10/17 11:31:22;;;;;;;;;9.33;8.00;;;;;;;;5065764;27;45554;-75
2023/10/17 11:33:53;;;;;;;;;6.67;6.33;;;;;;;;5084734;28;45457;-75
2023/10/17 11:36:21;;;;;;;;;49.33;38.67;;;;;;;;5076855;28;44817;-73
2023/10/17 11:38:56;;;;;;;;;15.67;14.00;;;;;;;;5063522;28;45478;-75
2023/10/17 11:41:28;;;;;;;;;24.00;20.00;;;;;;;;5059667;28;47336;-76
2023/10/17 11:43:54;;;;;;;;;7.33;6.33;;;;;;;;5076771;27;46270;-76
2023/10/17 11:46:29;;;;;;;;;7.33;7.33;;;;;;;;5071480;27;45660;-77
2023/10/17 11:49:13;;;;;;;;;8.00;7.00;;;;;;;;5088187;27;45637;-78
2023/10/17 11:51:39;;;;;;;;;10.67;9.00;;;;;;;;5093499;28;45704;-78
2023/10/17 11:54:08;;;;;;;;;16.00;14.00;;;;;;;;5090567;27;46081;-77
2023/10/17 11:56:39;;;;;;;;;17.67;17.00;;;;;;;;5088032;28;45225;-78
2023/10/17 11:59:07;;;;;;;;;43.00;34.33;;;;;;;;5097193;27;45629;-77
2023/10/17 12:01:33;;;;;;;;;46.67;38.67;;;;;;;;5086030;28;45927;-77
2023/10/17 12:04:06;;;;;;;;;25.00;23.67;;;;;;;;5093195;27;47365;-77
2023/10/17 12:06:31;;;;;;;;;19.67;19.00;;;;;;;;5086805;28;45317;-75
2023/10/17 12:08:57;;;;;;;;;23.00;20.00;;;;;;;;5100265;27;45379;-79
2023/10/17 12:11:24;;;;;;;;;21.33;18.33;;;;;;;;5097335;27;46232;-79
2023/10/17 12:13:49;;;;;;;;;15.33;14.00;;;;;;;;5101063;27;46135;-77
2023/10/17 12:16:17;;;;;;;;;20.67;18.67;;;;;;;;5102389;27;45365;-78
2023/10/17 12:18:42;;;;;;;;;47.67;38.00;;;;;;;;5103669;27;45152;-78
2023/10/17 12:21:14;;;;;;;;;41.67;30.00;;;;;;;;5101063;27;45345;-77
2023/10/17 12:23:39;;;;;;;;;8.67;7.00;;;;;;;;5097343;27;47422;-78
2023/10/17 12:26:08;;;;;;;;;9.67;8.67;;;;;;;;5065299;27;45535;-77
2023/10/17 12:28:33;;;;;;;;;12.67;12.33;;;;;;;;5079733;27;45502;-78
2023/10/17 12:30:58;;;;;;;;;10.00;9.00;;;;;;;;5076345;28;46001;-78
2023/10/17 12:33:24;;;;;;;;;8.00;7.00;;;;;;;;5075453;27;45441;-78
2023/10/17 12:35:50;;;;;;;;;10.00;9.67;;;;;;;;5078417;28;45528;-79
2023/10/17 12:38:25;;;;;;;;;8.67;8.67;;;;;;;;5082268;27;45437;-78
2023/10/17 12:40:52;;;;;;;;;5.67;5.67;;;;;;;;5077970;28;45407;-78
2023/10/17 12:43:17;;;;;;;;;6.00;6.00;;;;;;;;5078481;27;45626;-77
2023/10/17 12:45:42;;;;;;;;;11.00;9.33;;;;;;;;5079958;28;45312;-78
2023/10/17 12:48:11;;;;;;;;;8.33;8.33;;;;;;;;5079239;27;45363;-78
2023/10/17 12:50:41;;;;;;;;;6.00;6.00;;;;;;;;5075528;27;46166;-79
2023/10/17 12:53:06;;;;;;;;;7.67;7.67;;;;;;;;5077708;28;46089;-79
2023/10/17 12:55:34;;;;;;;;;6.00;5.00;;;;;;;;5076593;28;45524;-79
2023/10/17 12:58:00;;;;;;;;;5.00;5.00;;;;;;;;5077115;28;45439;-79
2023/10/17 13:00:25;;;;;;;;;8.00;5.67;;;;;;;;5076410;28;45299;-80
2023/10/17 13:02:52;;;;;;;;;10.00;8.67;;;;;;;;5075924;28;47125;-80
2023/10/17 13:05:20;;;;;;;;;8.33;8.33;;;;;;;;5077527;28;45343;-78
2023/10/17 13:07:45;;;;;;;;;15.00;13.00;;;;;;;;5074333;28;45482;-80
2023/10/17 13:10:11;;;;;;;;;10.67;9.00;;;;;;;;5056977;28;46815;-81
2023/10/17 13:12:38;;;;;;;;;8.00;7.33;;;;;;;;5061522;28;45710;-81
2023/10/17 13:15:08;;;;;;;;;6.00;6.00;;;;;;;;5087066;27;45312;-78
2023/10/17 13:17:33;;;;;;;;;7.33;7.00;;;;;;;;5091293;27;45540;-76
2023/10/17 13:19:58;;;;;;;;;7.67;7.33;;;;;;;;5088104;27;45276;-76
2023/10/17 13:22:23;;;;;;;;;6.00;6.00;;;;;;;;5080483;27;45550;-76
2023/10/17 13:24:50;;;;;;;;;6.00;6.00;;;;;;;;5076852;28;45830;-77
2023/10/17 13:27:15;;;;;;;;;6.67;6.67;;;;;;;;5063099;28;45529;-76
2023/10/17 13:29:41;;;;;;;;;8.00;6.00;;;;;;;;5085926;27;46014;-77
2023/10/17 13:32:07;;;;;;;;;7.00;7.00;;;;;;;;5101539;27;45390;-78
2023/10/17 13:34:36;;;;;;;;;8.00;8.00;;;;;;;;5101498;27;45317;-78
2023/10/17 13:37:04;;;;;;;;;9.67;7.00;;;;;;;;5109405;27;45768;-77
2023/10/17 13:39:30;;;;;;;;;7.00;7.00;;;;;;;;5112422;27;45380;-77
2023/10/17 13:41:55;;;;;;;;;7.00;7.00;;;;;;;;5113782;27;46182;-77
2023/10/17 13:44:20;;;;;;;;;8.33;6.00;;;;;;;;5110317;27;45274;-76
2023/10/17 13:46:45;;;;;;;;;5.67;5.67;;;;;;;;5066502;28;45386;-77
2023/10/17 13:49:10;;;;;;;;;9.67;7.00;;;;;;;;5060659;28;45626;-79
2023/10/17 13:51:36;;;;;;;;;10.00;8.00;;;;;;;;5066830;28;45324;-79
2023/10/17 13:54:01;;;;;;;;;8.00;7.33;;;;;;;;5061934;28;45490;-78
2023/10/17 13:56:27;;;;;;;;;6.00;6.00;;;;;;;;5062090;28;45315;-78
2023/10/17 13:58:52;;;;;;;;;7.00;6.33;;;;;;;;5061388;28;46185;-78
2023/10/17 14:01:33;;;;;;;;;7.00;7.00;;;;;;;;5063824;28;45264;-78
2023/10/17 14:03:58;;;;;;;;;7.33;6.33;;;;;;;;5067874;28;45554;-79
2023/10/17 14:06:27;;;;;;;;;7.00;7.00;;;;;;;;5078708;28;44740;-77
2023/10/17 14:08:53;;;;;;;;;8.00;7.67;;;;;;;;5070230;28;45320;-78
2023/10/17 14:11:18;;;;;;;;;8.00;8.00;;;;;;;;5075189;28;45176;-77
2023/10/17 14:13:44;;;;;;;;;8.00;8.00;;;;;;;;5081409;28;44593;-76
2023/10/17 14:16:10;;;;;;;;;9.00;8.00;;;;;;;;5080322;28;44645;-76
2023/10/17 14:18:44;;;;;;;;;8.00;8.00;;;;;;;;5076113;28;47166;-76
2023/10/17 14:24:00;;;;;;;;;6.00;6.00;;;;;;;;5079869;28;45279;-77
2023/10/17 14:26:58;;;;;;;;;6.00;6.00;;;;;;;;5071246;28;45319;-79
2023/10/17 14:29:23;;;;;;;;;8.33;8.33;;;;;;;;5045105;28;47717;-76
2023/10/17 14:31:49;;;;;;;;;8.00;8.00;;;;;;;;5093870;28;47049;-77
2023/10/17 14:34:14;;;;;;;;;5.00;5.00;;;;;;;;5097639;28;44709;-78
2023/10/17 14:36:39;;;;;;;;;9.33;7.67;;;;;;;;5102881;27;45222;-76
2023/10/17 14:39:09;;;;;;;;;7.00;6.33;;;;;;;;5091214;28;46202;-76
2023/10/17 14:41:36;;;;;;;;;9.00;9.00;;;;;;;;5083135;27;46195;-75
2023/10/17 14:44:01;;;;;;;;;6.33;6.33;;;;;;;;5082626;28;45348;-78
2023/10/17 14:46:27;;;;;;;;;7.67;7.67;;;;;;;;5085262;27;45463;-78
2023/10/17 14:48:52;;;;;;;;;7.33;7.00;;;;;;;;5081912;28;45572;-78
2023/10/17 14:51:19;;;;;;;;;9.67;8.00;;;;;;;;5084026;27;45354;-76
2023/10/17 14:53:46;;;;;;;;;7.67;7.67;;;;;;;;5083536;28;45775;-77
2023/10/17 14:56:14;;;;;;;;;3.00;2.33;;;;;;;;5092905;27;45354;-76
2023/10/17 14:58:40;;;;;;;;;18.00;16.67;;;;;;;;5095959;27;45377;-76
2023/10/17 15:01:06;;;;;;;;;16.33;13.33;;;;;;;;5092219;27;45341;-77
2023/10/17 15:03:31;;;;;;;;;7.67;7.67;;;;;;;;5092144;27;45310;-76
2023/10/17 15:05:56;;;;;;;;;8.00;7.33;;;;;;;;5091258;27;45374;-76
2023/10/17 15:08:21;;;;;;;;;8.00;8.00;;;;;;;;5090334;28;45592;-76
2023/10/17 15:10:48;;;;;;;;;6.00;6.00;;;;;;;;5088266;27;45373;-78
2023/10/17 15:13:14;;;;;;;;;9.67;8.33;;;;;;;;5087628;28;45243;-78
2023/10/17 15:15:39;;;;;;;;;9.33;8.00;;;;;;;;5085034;27;45438;-77
2023/10/17 15:18:05;;;;;;;;;9.00;8.00;;;;;;;;5078481;28;45157;-78
2023/10/17 15:20:30;;;;;;;;;8.00;8.00;;;;;;;;5083637;27;45372;-78
2023/10/17 15:22:56;;;;;;;;;9.67;8.00;;;;;;;;5094959;28;45273;-77
2023/10/17 15:25:23;;;;;;;;;10.00;8.67;;;;;;;;5091570;27;45250;-78
2023/10/17 15:27:49;;;;;;;;;9.67;7.67;;;;;;;;5087505;28;45444;-78
2023/10/17 15:30:15;;;;;;;;;8.00;8.00;;;;;;;;5085292;27;45500;-78
2023/10/17 15:32:40;;;;;;;;;6.67;6.67;;;;;;;;5066275;28;45281;-77
2023/10/17 15:35:15;;;;;;;;;8.33;7.67;;;;;;;;5075395;27;45365;-78
2023/10/17 15:37:46;;;;;;;;;6.00;6.00;;;;;;;;5074377;28;45392;-77
2023/10/17 15:40:16;;;;;;;;;9.33;7.00;;;;;;;;5072527;28;46147;-79
2023/10/17 15:42:41;;;;;;;;;8.33;8.33;;;;;;;;5067491;28;45409;-78
2023/10/17 15:45:08;;;;;;;;;8.00;8.00;;;;;;;;5067746;28;45327;-77
2023/10/17 15:47:33;;;;;;;;;9.00;9.00;;;;;;;;5072607;28;46150;-78
2023/10/17 15:49:58;;;;;;;;;8.33;8.33;;;;;;;;5078304;28;46422;-78
2023/10/17 15:52:23;;;;;;;;;8.00;8.00;;;;;;;;5070119;28;45351;-76
2023/10/17 15:54:50;;;;;;;;;9.33;8.67;;;;;;;;5071242;28;45433;-77
2023/10/17 15:57:16;;;;;;;;;11.00;10.00;;;;;;;;5072579;28;47041;-78
2023/10/17 15:59:41;;;;;;;;;8.67;8.67;;;;;;;;5082769;28;45309;-78
2023/10/17 16:02:14;;;;;;;;;7.00;7.00;;;;;;;;5084312;28;45236;-78
2023/10/17 16:04:39;;;;;;;;;7.67;7.67;;;;;;;;5083620;28;45724;-75
2023/10/17 16:07:04;;;;;;;;;9.67;9.67;;;;;;;;5085374;28;45207;-78
2023/10/17 16:09:32;;;;;;;;;12.33;10.00;;;;;;;;5086299;28;45400;-77
2023/10/17 16:12:03;;;;;;;;;11.33;10.00;;;;;;;;5079888;27;45235;-78
2023/10/17 16:14:30;;;;;;;;;9.33;9.33;;;;;;;;5088200;28;45361;-78
2023/10/17 16:17:03;;;;;;;;;10.00;8.67;;;;;;;;5083199;27;45467;-76
2023/10/17 16:19:29;;;;;;;;;10.67;10.33;;;;;;;;5082890;27;45425;-77
2023/10/17 16:21:54;;;;;;;;;10.00;10.00;;;;;;;;5080321;28;45281;-76
2023/10/17 16:24:19;;;;;;;;;9.67;8.67;;;;;;;;5085369;27;45489;-77
2023/10/17 16:26:47;;;;;;;;;9.00;9.00;;;;;;;;5085763;27;45293;-77
2023/10/17 16:29:13;;;;;;;;;11.00;11.00;;;;;;;;5082204;27;46317;-78
2023/10/17 16:31:39;;;;;;;;;10.67;10.67;;;;;;;;5080010;28;45377;-76
2023/10/17 16:34:04;;;;;;;;;10.33;10.33;;;;;;;;5079354;28;45404;-77
2023/10/17 16:36:29;;;;;;;;;14.33;14.33;;;;;;;;5082403;28;45396;-77
2023/10/17 16:38:54;;;;;;;;;12.33;11.67;;;;;;;;5081792;28;45232;-77
2023/10/17 16:41:19;;;;;;;;;11.33;11.33;;;;;;;;5084270;28;45344;-77
2023/10/17 16:43:45;;;;;;;;;11.00;11.00;;;;;;;;5080710;28;45292;-77
2023/10/17 16:46:11;;;;;;;;;13.00;11.67;;;;;;;;5082049;28;46925;-77
2023/10/17 16:48:36;;;;;;;;;12.67;12.00;;;;;;;;5083012;28;45804;-77
2023/10/17 16:51:02;;;;;;;;;20.67;20.67;;;;;;;;5081009;28;45315;-77
2023/10/17 16:53:30;;;;;;;;;28.67;27.00;;;;;;;;5083979;28;45285;-76
2023/10/17 16:55:55;;;;;;;;;20.00;18.33;;;;;;;;5083181;28;45296;-77
2023/10/17 16:58:21;;;;;;;;;12.33;12.33;;;;;;;;5084993;28;47364;-77